Time;durP1;ratioP1;P1;durP2;ratioP2;P2;SDS_P1;SDS_P2;PMS_P1;PMS_P2;Temp;Humidity;BMP_temperature;BMP_pressure;BME280_temperature;BME280_humidity;BME280_pressure;Samples;Min_cycle;Max_cycle;Signal;HPM_P1;HPM_P2
2021/12/21 00:00:12;;;;;;;11.70;6.15;;;0.00;79.40;;;-2.31;87.24;96740.84;4999874;28;20073;-64
2021/12/21 00:02:42;;;;;;;15.93;6.78;;;0.00;79.30;;;-2.33;88.02;96741.84;4988102;28;20026;-64
2021/12/21 00:05:09;;;;;;;15.53;7.20;;;-3276.70;79.50;;;-2.34;87.93;96740.19;5001369;28;20038;-64
2021/12/21 00:07:35;;;;;;;11.98;6.40;;;-3276.70;79.80;;;-2.34;88.01;96753.09;5001524;28;20804;-64
2021/12/21 00:10:01;;;;;;;11.73;6.88;;;-3276.70;79.70;;;-2.37;87.49;96736.06;4985176;28;20042;-64
2021/12/21 00:12:30;;;;;;;13.07;6.63;;;-3276.60;79.70;;;-2.39;87.46;96731.94;4968762;28;20062;-64
2021/12/21 00:15:03;;;;;;;12.95;6.47;;;-3276.60;79.50;;;-2.41;87.24;96738.94;5002005;28;20046;-64
2021/12/21 00:17:46;;;;;;;14.07;6.72;;;-3276.60;79.50;;;-2.44;87.46;96728.81;5002126;28;20057;-64
2021/12/21 00:20:28;;;;;;;14.05;6.40;;;-3276.60;79.60;;;-2.45;88.05;96727.16;4979740;28;20525;-64
2021/12/21 00:25:37;;;;;;;12.73;6.47;;;-3276.50;79.70;;;-2.50;87.46;96723.09;4991383;28;20049;-64
2021/12/21 00:28:03;;;;;;;15.02;6.30;;;-3276.50;79.50;;;-2.53;87.50;96731.00;5007137;28;20035;-64
2021/12/21 00:30:29;;;;;;;13.27;6.93;;;-3276.50;79.70;;;-2.53;87.67;96730.19;5005863;28;20057;-64
2021/12/21 00:32:55;;;;;;;14.02;6.20;;;-3276.50;79.80;;;-2.56;87.52;96731.22;5005980;28;20108;-64
2021/12/21 00:35:21;;;;;;;12.52;6.55;;;-3276.50;79.60;;;-2.59;87.66;96728.81;5001784;28;20507;-64
2021/12/21 00:37:47;;;;;;;14.63;7.00;;;-3276.40;79.40;;;-2.62;87.29;96731.59;4985251;28;20038;-64
2021/12/21 00:40:13;;;;;;;13.50;7.18;;;-3276.40;79.40;;;-2.65;87.81;96733.53;5000700;28;20056;-64
2021/12/21 00:42:38;;;;;;;14.25;6.72;;;-3276.40;79.60;;;-2.68;87.64;96726.81;4984504;28;20023;-64
2021/12/21 00:45:05;;;;;;;13.95;7.10;;;-3276.40;79.80;;;-2.69;87.81;96719.19;4973031;28;20030;-65
2021/12/21 00:47:33;;;;;;;13.45;7.10;;;-3276.30;79.80;;;-2.71;88.22;96716.69;4993815;28;20026;-64
2021/12/21 00:50:01;;;;;;;13.73;6.18;;;-3276.30;79.70;;;-2.71;87.69;96715.88;4970608;28;20026;-64
2021/12/21 00:52:27;;;;;;;14.27;6.70;;;-3276.30;79.90;;;-2.71;87.95;96714.13;5000529;28;20422;-64
2021/12/21 00:54:53;;;;;;;14.93;6.95;;;-3276.30;80.00;;;-2.72;87.88;96709.88;4980113;28;20039;-64
2021/12/21 00:57:18;;;;;;;14.52;7.53;;;-3276.30;80.00;;;-2.73;88.29;96710.78;5000258;28;20104;-64
2021/12/21 00:59:44;;;;;;;14.55;7.45;;;-3276.30;80.00;;;-2.74;88.16;96711.72;4987066;28;20073;-64
2021/12/21 01:02:10;;;;;;;14.45;7.95;;;-3276.30;80.10;;;-2.76;88.15;96703.25;5004246;28;20041;-64
2021/12/21 01:04:42;;;;;;;17.42;7.78;;;-3276.30;80.40;;;-2.76;88.20;96700.69;4983569;28;20060;-64
2021/12/21 01:10:08;;;;;;;16.48;8.32;;;-3276.30;80.80;;;-2.77;88.93;96696.44;4983655;28;20434;-64
2021/12/21 01:15:16;;;;;;;14.63;8.07;;;-3276.30;80.80;;;-2.79;88.71;96688.00;5001330;28;20035;-63
2021/12/21 01:20:40;;;;;;;18.42;7.95;;;-3276.30;80.70;;;-2.78;88.88;96689.66;5002515;28;20571;-64
2021/12/21 01:23:37;;;;;;;16.13;7.32;;;-3276.30;80.70;;;-2.80;88.52;96692.31;5003635;28;20049;-64
2021/12/21 01:26:06;;;;;;;14.32;7.60;;;-3276.20;80.50;;;-2.81;88.46;96685.53;4979119;28;20382;-63
2021/12/21 01:28:49;;;;;;;14.43;7.72;;;-3276.20;80.40;;;-2.81;88.59;96679.53;4964368;28;20502;-64
2021/12/21 01:42:05;;;;;;;16.45;7.90;;;-3276.10;80.90;;;-2.92;89.18;96666.50;4983413;23;20093;-69
2021/12/21 01:49:50;;;;;;;13.85;7.05;;;-3276.10;81.20;;;-2.97;89.25;96650.50;4946276;28;20127;-69
2021/12/21 01:52:19;;;;;;;10.85;6.68;;;-3276.10;81.10;;;-2.99;89.25;96652.34;4931404;28;20211;-69
2021/12/21 01:54:45;;;;;;;15.30;7.43;;;-3276.10;81.00;;;-2.98;88.99;96657.38;4931058;28;20039;-68
2021/12/21 01:57:11;;;;;;;11.80;6.40;;;-3276.10;80.90;;;-3.00;89.32;96648.94;4934308;29;20039;-68
2021/12/21 01:59:37;;;;;;;12.82;6.25;;;-3276.10;81.00;;;-2.99;89.14;96649.75;4920018;29;20396;-69
2021/12/21 02:02:05;;;;;;;11.38;6.15;;;-3276.00;80.70;;;-3.00;89.06;96653.25;4908149;29;20083;-68
2021/12/21 02:04:30;;;;;;;13.93;6.57;;;-3276.00;80.90;;;-3.03;89.05;96643.97;4932438;28;20040;-68
2021/12/21 02:06:56;;;;;;;15.05;6.80;;;-3276.00;81.00;;;-3.04;89.58;96642.31;4933503;29;20130;-68
2021/12/21 02:09:28;;;;;;;11.43;6.50;;;-3276.00;80.90;;;-3.04;89.38;96636.34;4936777;28;20121;-68
2021/12/21 02:11:54;;;;;;;13.75;5.72;;;-3276.00;80.90;;;-3.03;89.35;96638.00;4938107;29;20036;-68
2021/12/21 02:14:20;;;;;;;11.98;5.82;;;-3276.00;80.80;;;-3.09;89.71;96631.50;4934319;28;20066;-68
2021/12/21 02:16:58;;;;;;;14.13;6.32;;;-3276.00;81.10;;;-3.08;90.01;96631.41;4936348;28;20111;-68
2021/12/21 02:19:33;;;;;;;11.98;6.07;;;-3276.00;81.20;;;-3.05;89.39;96632.13;4937132;29;20035;-68
2021/12/21 02:22:09;;;;;;;10.57;5.97;;;-3276.00;81.10;;;-3.04;89.55;96620.91;4935673;29;20074;-68
2021/12/21 02:24:56;;;;;;;12.60;6.22;;;-3276.00;81.00;;;-3.06;89.30;96628.72;4928626;28;20063;-68
2021/12/21 02:27:28;;;;;;;14.32;6.18;;;-3276.00;80.70;;;-3.08;89.59;96626.25;4916342;29;20036;-69
2021/12/21 02:29:54;;;;;;;10.75;5.53;;;-3276.00;80.60;;;-3.08;89.16;96620.28;4932625;28;20672;-68
2021/12/21 02:32:22;;;;;;;16.67;5.47;;;-3276.00;80.40;;;-3.10;89.39;96617.78;4932247;28;20471;-68
2021/12/21 02:34:47;;;;;;;13.55;5.88;;;-3276.00;80.30;;;-3.12;88.88;96619.63;4930153;28;20032;-68
2021/12/21 02:37:13;;;;;;;11.20;5.43;;;-3276.00;80.20;;;-3.12;88.98;96609.34;4938699;29;20031;-69
2021/12/21 02:39:39;;;;;;;10.10;5.55;;;-3276.00;79.90;;;-3.12;88.50;96619.63;4917294;29;20507;-69
2021/12/21 02:42:06;;;;;;;10.35;5.50;;;-3275.90;79.90;;;-3.16;88.82;96609.63;4933911;29;20488;-69
2021/12/21 02:44:31;;;;;;;13.43;5.45;;;-3276.00;79.80;;;-3.16;88.47;96617.34;4917140;29;20058;-69
2021/12/21 02:46:57;;;;;;;11.00;5.15;;;-3275.90;79.70;;;-3.18;88.42;96609.69;4935578;29;20071;-69
2021/12/21 02:49:23;;;;;;;11.23;5.15;;;-3275.90;79.60;;;-3.22;88.61;96603.09;4911737;29;20403;-69
2021/12/21 02:51:49;;;;;;;14.07;5.60;;;-3275.90;79.70;;;-3.21;88.41;96609.88;4902747;29;20076;-69
2021/12/21 02:54:16;;;;;;;10.50;5.70;;;-3275.90;79.80;;;-3.23;88.43;96613.47;4926510;29;20053;-69
2021/12/21 02:56:42;;;;;;;11.95;5.07;;;-3275.80;80.00;;;-3.25;88.37;96608.41;4929437;28;20479;-69
2021/12/21 02:59:08;;;;;;;11.65;5.55;;;-3275.80;79.80;;;-3.28;88.07;96607.78;4925510;29;20031;-69
2021/12/21 03:01:35;;;;;;;8.32;4.72;;;-3275.80;79.70;;;-3.30;88.43;96610.44;4920822;29;20118;-69
2021/12/21 03:04:00;;;;;;;12.23;5.72;;;-3275.80;79.60;;;-3.31;88.33;96610.53;4933702;29;20031;-68
2021/12/21 03:07:17;;;;;;;8.60;5.50;;;-3275.70;79.60;;;-3.34;88.66;96598.69;4936387;28;20039;-69
2021/12/21 03:10:00;;;;;;;11.60;5.95;;;-3275.80;79.90;;;-3.36;88.82;96610.00;4937707;28;20032;-68
2021/12/21 03:14:43;;;;;;;12.30;5.72;;;-3275.70;80.00;;;-3.38;88.92;96612.66;4940009;28;20125;-69
2021/12/21 03:17:09;;;;;;;10.93;4.88;;;-3275.80;80.00;;;-3.38;88.55;96615.22;4925528;29;20119;-69
2021/12/21 03:19:35;;;;;;;8.80;5.70;;;-3275.70;79.90;;;-3.40;88.70;96609.31;4933069;29;20110;-69
2021/12/21 03:22:00;;;;;;;8.32;4.90;;;-3275.70;79.90;;;-3.40;88.34;96605.00;4938646;28;20404;-69
2021/12/21 03:24:26;;;;;;;11.40;5.70;;;-3275.70;79.90;;;-3.42;88.41;96606.00;4939324;29;20054;-69
2021/12/21 03:26:52;;;;;;;9.35;5.43;;;-3275.60;79.90;;;-3.41;88.94;96610.25;4930303;28;20071;-69
2021/12/21 03:29:18;;;;;;;10.55;5.80;;;-3275.60;80.00;;;-3.44;88.78;96607.84;4924042;29;20055;-68
2021/12/21 03:31:43;;;;;;;13.68;6.50;;;-3275.70;80.60;;;-3.46;89.33;96605.38;4940257;28;20071;-69
2021/12/21 03:34:09;;;;;;;12.55;5.55;;;-3275.60;80.80;;;-3.46;89.69;96609.69;4938618;28;20118;-69
2021/12/21 03:36:35;;;;;;;11.93;6.05;;;-3275.70;81.00;;;-3.42;89.71;96617.13;4904026;29;20032;-68
2021/12/21 03:39:16;;;;;;;17.00;6.53;;;-3275.70;81.20;;;-3.42;89.71;96606.00;4920764;29;20500;-69
2021/12/21 03:41:46;;;;;;;13.18;6.60;;;-3275.70;81.40;;;-3.40;90.01;96612.72;4933538;28;20043;-69
2021/12/21 03:44:12;;;;;;;14.32;6.38;;;-3275.70;81.50;;;-3.40;90.28;96607.56;4927546;29;20407;-69
2021/12/21 03:46:45;;;;;;;12.30;6.45;;;-3275.70;81.60;;;-3.37;90.07;96603.19;4926357;28;20035;-69
2021/12/21 03:49:49;;;;;;;9.82;5.82;;;-3275.80;81.60;;;-3.36;90.09;96610.81;4942153;28;20032;-69
2021/12/21 03:51:56;;;;;;;14.40;6.22;;;-3275.80;81.60;;;-3.36;90.59;96595.38;4936966;28;20056;-69
2021/12/21 03:54:22;;;;;;;13.00;6.18;;;-3275.80;81.60;;;-3.36;90.38;96603.09;4933467;29;20041;-69
2021/12/21 03:56:50;;;;;;;12.70;6.57;;;-3275.80;81.30;;;-3.34;90.04;96605.56;4927188;28;20038;-69
2021/12/21 03:59:16;;;;;;;13.63;6.95;;;-3275.80;81.20;;;-3.36;90.55;96600.53;4897171;29;20024;-69
2021/12/21 04:01:42;;;;;;;11.65;6.38;;;-3275.80;81.20;;;-3.34;90.19;96592.72;4937287;29;20164;-69
2021/12/21 04:04:08;;;;;;;14.38;6.20;;;-3275.80;81.10;;;-3.31;90.32;96593.34;4896902;29;20410;-69
2021/12/21 04:06:35;;;;;;;12.10;6.05;;;-3275.80;80.80;;;-3.34;90.13;96598.69;4936843;28;20056;-69
2021/12/21 04:09:02;;;;;;;14.10;6.78;;;-3275.90;80.50;;;-3.37;89.64;96591.16;4918037;29;20055;-69
2021/12/21 04:11:28;;;;;;;10.93;6.35;;;-3275.80;80.50;;;-3.38;89.82;96597.22;4895890;29;20128;-69
2021/12/21 04:13:54;;;;;;;13.52;7.15;;;-3275.80;80.60;;;-3.38;89.51;96593.81;4898138;29;20575;-69
2021/12/21 04:16:20;;;;;;;13.23;6.93;;;-3275.70;80.40;;;-3.42;90.06;96596.56;4923572;29;21270;-69
2021/12/21 04:18:45;;;;;;;12.38;6.60;;;-3275.70;80.60;;;-3.44;90.01;96592.41;4935605;28;20123;-69
2021/12/21 04:21:13;;;;;;;15.73;7.15;;;-3275.70;80.50;;;-3.45;90.00;96595.91;4942429;28;20154;-69
2021/12/21 04:23:39;;;;;;;12.15;6.80;;;-3275.70;80.60;;;-3.45;89.86;96599.31;4911325;29;20034;-69
2021/12/21 04:26:06;;;;;;;11.75;6.45;;;-3275.70;80.50;;;-3.47;90.09;96600.31;4916986;29;20090;-68
2021/12/21 04:28:32;;;;;;;12.77;6.78;;;-3275.70;80.50;;;-3.49;90.09;96599.59;4918437;29;20032;-69
2021/12/21 04:30:58;;;;;;;14.77;7.47;;;-3275.60;80.80;;;-3.51;90.09;96597.13;4912992;29;20370;-69
2021/12/21 04:33:23;;;;;;;16.83;7.38;;;-3275.60;80.90;;;-3.49;90.41;96604.72;4916421;29;20036;-69
2021/12/21 04:35:49;;;;;;;12.63;7.30;;;-3275.60;81.10;;;-3.50;90.05;96600.50;4930879;29;20032;-69
2021/12/21 04:38:23;;;;;;;14.65;7.38;;;-3275.60;81.30;;;-3.52;90.04;96604.91;4925993;29;20078;-69
2021/12/21 04:41:02;;;;;;;14.68;7.70;;;-3275.60;81.20;;;-3.53;90.61;96598.13;4920773;28;20085;-69
2021/12/21 04:43:28;;;;;;;16.27;7.75;;;-3275.60;81.30;;;-3.52;89.98;96602.34;4941220;28;20544;-69
2021/12/21 04:45:54;;;;;;;12.25;7.35;;;-3275.60;81.10;;;-3.54;90.56;96599.03;4936005;29;20128;-69
2021/12/21 04:48:20;;;;;;;28.33;14.85;;;-3275.60;81.20;;;-3.55;90.44;96600.78;4898373;29;20116;-69
2021/12/21 04:50:45;;;;;;;20.67;11.23;;;-3275.60;81.00;;;-3.54;90.31;96601.63;4928668;28;20051;-69
2021/12/21 04:53:11;;;;;;;21.15;11.32;;;-3275.60;81.20;;;-3.51;90.08;96601.44;4935729;29;20360;-69
2021/12/21 04:55:37;;;;;;;16.83;8.32;;;-3275.60;81.10;;;-3.52;90.51;96599.78;4938000;28;20452;-69
2021/12/21 04:58:03;;;;;;;17.27;7.70;;;-3275.60;81.10;;;-3.52;90.46;96610.06;4943574;28;20539;-69
2021/12/21 05:00:29;;;;;;;12.65;7.50;;;-3275.60;81.00;;;-3.53;90.39;96614.38;4940268;28;20038;-69
2021/12/21 05:02:54;;;;;;;16.40;7.07;;;-3275.60;80.90;;;-3.52;89.99;96612.63;4930784;28;20083;-69
2021/12/21 05:05:21;;;;;;;14.02;7.85;;;-3275.60;80.80;;;-3.54;89.98;96622.19;4933063;28;20118;-69
2021/12/21 05:07:52;;;;;;;12.35;7.30;;;-3275.60;80.90;;;-3.55;90.11;96620.53;4953252;28;20036;-69
2021/12/21 05:10:19;;;;;;;12.60;7.13;;;-3275.60;80.80;;;-3.55;90.46;96610.25;4927991;28;20057;-69
2021/12/21 05:12:45;;;;;;;13.45;7.30;;;-3275.60;80.60;;;-3.59;90.19;96609.59;4930507;28;20522;-69
2021/12/21 05:15:11;;;;;;;30.75;17.33;;;-3275.50;80.60;;;-3.60;90.35;96609.69;4936201;29;20138;-69
2021/12/21 05:17:36;;;;;;;23.00;13.73;;;-3275.60;80.60;;;-3.60;89.78;96609.69;4936476;28;20035;-69
2021/12/21 05:20:03;;;;;;;26.77;16.02;;;-3275.50;80.80;;;-3.64;90.18;96595.34;4927116;28;20095;-69
2021/12/21 05:22:29;;;;;;;16.98;9.43;;;-3275.50;80.90;;;-3.63;89.91;96608.09;4925006;29;20092;-69
2021/12/21 05:24:55;;;;;;;17.40;7.97;;;-3275.50;80.80;;;-3.67;90.19;96592.94;4930324;28;20079;-69
2021/12/21 05:27:21;;;;;;;12.02;8.07;;;-3275.50;81.00;;;-3.65;90.00;96603.97;4910169;29;20578;-68
2021/12/21 05:29:46;;;;;;;19.33;10.85;;;-3275.50;81.00;;;-3.67;90.46;96614.34;4934507;28;20065;-70
2021/12/21 05:32:12;;;;;;;19.60;10.60;;;-3275.50;81.10;;;-3.66;90.20;96617.75;4915096;29;20040;-69
2021/12/21 05:34:38;;;;;;;16.90;7.93;;;-3275.50;81.00;;;-3.67;90.26;96610.94;4941527;28;20039;-70
2021/12/21 05:37:07;;;;;;;15.82;9.82;;;-3275.50;80.90;;;-3.68;90.15;96615.25;4899785;29;20103;-69
2021/12/21 05:40:17;;;;;;;17.48;9.38;;;-3275.50;80.60;;;-3.71;89.93;96611.13;4913646;29;20104;-70
2021/12/21 05:42:23;;;;;;;13.27;7.80;;;-3275.50;80.50;;;-3.68;89.70;96614.44;4926831;29;20113;-70
2021/12/21 05:44:49;;;;;;;12.13;7.07;;;-3275.40;80.50;;;-3.68;89.58;96617.00;4912401;28;20051;-68
2021/12/21 05:47:16;;;;;;;19.35;10.50;;;-3275.50;80.60;;;-3.71;90.25;96616.28;4946095;28;20047;-69
2021/12/21 05:49:42;;;;;;;41.60;22.63;;;-3275.40;80.40;;;-3.73;89.89;96620.69;4934436;29;20071;-71
2021/12/21 05:52:07;;;;;;;18.67;10.52;;;-3275.50;80.50;;;-3.72;89.84;96616.38;4930465;29;20478;-69
2021/12/21 05:54:33;;;;;;;14.32;7.85;;;-3275.40;80.40;;;-3.72;89.62;96624.91;4930341;28;20036;-70
2021/12/21 05:57:00;;;;;;;13.25;7.10;;;-3275.40;80.40;;;-3.74;89.77;96621.59;4905139;29;20120;-70
2021/12/21 05:59:25;;;;;;;14.30;7.43;;;-3275.40;80.10;;;-3.74;89.69;96616.44;4939035;28;20055;-70
2021/12/21 06:01:51;;;;;;;14.02;6.78;;;-3275.40;80.20;;;-3.78;89.64;96620.13;4937143;28;20059;-69
2021/12/21 06:04:17;;;;;;;12.18;6.57;;;-3275.40;80.40;;;-3.79;90.16;96618.47;4945216;28;20040;-69
2021/12/21 06:06:43;;;;;;;9.73;6.35;;;-3275.40;80.60;;;-3.82;90.20;96613.50;4914028;28;20428;-69
2021/12/21 06:09:11;;;;;;;13.23;6.93;;;-3275.30;80.50;;;-3.79;90.41;96617.63;4914605;29;20027;-70
2021/12/21 06:11:43;;;;;;;12.95;6.72;;;-3275.40;80.50;;;-3.83;90.29;96619.56;4915211;29;20024;-70
2021/12/21 06:15:07;;;;;;;11.05;6.97;;;-3275.30;80.40;;;-3.84;90.09;96620.47;4922836;29;20078;-69
2021/12/21 06:27:25;;;;;;;13.25;7.50;;;-3275.30;80.70;;;-3.86;89.72;96627.44;4930314;28;20124;-69
2021/12/21 06:29:51;;;;;;;14.88;9.45;;;-3275.30;80.80;;;-3.87;89.97;96620.63;4895546;29;20076;-69
2021/12/21 06:32:17;;;;;;;19.83;9.48;;;-3275.30;81.00;;;-3.86;90.24;96616.31;4926401;28;20032;-70
2021/12/21 06:34:44;;;;;;;17.38;8.93;;;-3275.30;81.30;;;-3.87;90.13;96618.06;4913780;28;20071;-71
2021/12/21 06:37:10;;;;;;;14.77;8.13;;;-3275.30;81.20;;;-3.86;90.59;96618.88;4930409;29;20082;-70
2021/12/21 06:39:36;;;;;;;14.65;7.85;;;-3275.30;81.30;;;-3.86;90.82;96622.28;4914331;28;20471;-71
2021/12/21 06:42:02;;;;;;;13.60;7.55;;;-3275.40;81.20;;;-3.85;90.53;96625.69;4929665;28;20040;-71
2021/12/21 06:44:28;;;;;;;10.57;7.28;;;-3275.30;80.80;;;-3.89;90.02;96622.47;4897126;29;20119;-70
2021/12/21 06:52:05;;;;;;;14.73;7.05;;;-3275.30;80.50;;;-3.92;89.93;96619.25;4916807;29;20047;-69
2021/12/21 06:54:31;;;;;;;36.83;20.70;;;-3275.30;80.70;;;-3.90;90.59;96632.84;4914790;29;20458;-67
2021/12/21 06:56:57;;;;;;;55.97;30.70;;;-3275.20;81.10;;;-3.92;90.69;96622.66;4929553;28;20052;-69
2021/12/21 06:59:23;;;;;;;34.38;19.17;;;-3275.30;81.20;;;-3.92;90.57;96611.53;4927415;29;20512;-71
2021/12/21 07:01:49;;;;;;;16.85;9.65;;;-3275.30;81.20;;;-3.94;90.38;96621.91;4914643;29;20035;-68
2021/12/21 07:04:15;;;;;;;14.57;8.30;;;-3275.30;81.10;;;-3.91;90.55;96624.28;4913116;29;20385;-66
2021/12/21 07:06:41;;;;;;;14.18;8.68;;;-3275.30;80.80;;;-3.93;90.27;96615.84;4930300;28;20098;-66
2021/12/21 07:09:14;;;;;;;13.27;7.88;;;-3275.30;80.70;;;-3.91;90.36;96614.03;4915231;29;20526;-71
2021/12/21 07:11:45;;;;;;;11.10;7.70;;;-3275.30;80.70;;;-3.91;90.38;96619.16;4911389;29;20044;-66
2021/12/21 07:19:41;;;;;;;16.10;8.30;;;-3275.30;80.50;;;-3.91;90.55;96621.72;4898547;29;20416;-69
2021/12/21 07:22:07;;;;;;;13.80;8.20;;;-3275.30;80.60;;;-3.93;90.69;96621.00;4927508;29;20048;-69
2021/12/21 07:24:33;;;;;;;16.00;8.23;;;-3275.30;80.70;;;-3.93;90.49;96623.56;4912990;29;20039;-67
2021/12/21 07:26:58;;;;;;;16.98;7.95;;;-3275.40;80.60;;;-3.91;90.72;96624.28;4916648;28;20111;-66
2021/12/21 07:29:24;;;;;;;13.77;7.93;;;-3275.30;80.60;;;-3.91;90.67;96624.28;4914735;29;20040;-72
2021/12/21 07:31:50;;;;;;;14.90;7.97;;;-3275.30;80.90;;;-3.90;90.76;96623.38;4929889;29;20503;-67
2021/12/21 07:34:16;;;;;;;14.27;8.80;;;-3275.30;80.90;;;-3.90;90.69;96622.56;4931944;28;20115;-67
2021/12/21 07:36:43;;;;;;;14.88;8.45;;;-3275.40;80.90;;;-3.87;90.91;96636.06;4917890;28;20098;-67
2021/12/21 07:39:10;;;;;;;13.73;8.55;;;-3275.30;80.90;;;-3.89;90.94;96625.03;4903232;29;20024;-67
2021/12/21 07:41:36;;;;;;;17.50;8.60;;;-3275.40;80.90;;;-3.84;91.01;96623.06;4902750;29;20036;-67
2021/12/21 07:44:02;;;;;;;15.95;8.75;;;-3275.40;80.90;;;-3.82;91.21;96628.09;4918186;29;20039;-67
2021/12/21 07:46:27;;;;;;;14.07;8.50;;;-3275.50;80.80;;;-3.79;91.05;96626.19;4902627;29;20436;-67
2021/12/21 07:48:53;;;;;;;14.30;8.30;;;-3275.50;80.50;;;-3.78;91.13;96620.13;4917937;28;20451;-67
2021/12/21 07:51:19;;;;;;;21.10;10.02;;;-3275.50;80.50;;;-3.76;90.88;96625.16;4933617;28;20032;-68
2021/12/21 07:53:45;;;;;;;21.10;11.13;;;-3275.50;80.50;;;-3.74;91.48;96621.59;4918033;29;20529;-67
2021/12/21 07:56:11;;;;;;;26.38;15.45;;;-3275.60;80.60;;;-3.72;91.06;96619.75;4934222;28;20451;-67
2021/12/21 07:58:37;;;;;;;18.15;10.93;;;-3275.70;80.40;;;-3.61;91.00;96620.91;4933580;28;20070;-67
2021/12/21 08:01:04;;;;;;;13.95;8.85;;;-3275.90;80.20;;;-3.56;91.35;96619.72;4933875;29;20527;-68
2021/12/21 08:03:33;;;;;;;17.60;8.52;;;-3276.00;79.80;;;-3.52;91.43;96615.19;4902193;29;20115;-68
2021/12/21 08:06:00;;;;;;;15.40;8.45;;;-3276.00;79.70;;;-3.43;91.69;96612.91;4903163;29;20043;-68
2021/12/21 08:08:28;;;;;;;14.23;8.48;;;-3276.10;79.60;;;-3.36;91.55;96621.09;4917876;29;20118;-68
2021/12/21 08:11:08;;;;;;;14.63;8.70;;;-3276.10;79.50;;;-3.27;91.48;96627.44;4933333;28;20028;-67
2021/12/21 08:13:37;;;;;;;14.32;8.65;;;-3276.20;79.60;;;-3.20;91.17;96633.84;4919140;29;20150;-67
2021/12/21 08:16:03;;;;;;;19.10;8.82;;;-3276.20;79.30;;;-3.14;91.35;96626.63;4933709;29;20031;-68
2021/12/21 08:18:29;;;;;;;16.10;8.88;;;-3276.30;79.20;;;-3.06;90.93;96630.47;4917675;29;20039;-68
2021/12/21 08:20:55;;;;;;;14.23;8.15;;;-3276.40;79.10;;;-2.99;91.41;96629.16;4918287;28;20062;-68
2021/12/21 08:23:20;;;;;;;19.35;10.52;;;-3276.50;79.10;;;-2.92;91.29;96630.47;4917923;28;20051;-68
2021/12/21 08:25:46;;;;;;;22.77;10.98;;;-3276.60;78.90;;;-2.86;90.69;96615.47;4917594;29;20071;-68
2021/12/21 08:28:12;;;;;;;19.33;11.90;;;-3276.60;78.80;;;-2.79;90.82;96628.78;4901932;29;20083;-68
2021/12/21 08:30:38;;;;;;;20.70;11.57;;;0.00;78.60;;;-2.75;90.78;96621.69;4917022;28;20032;-68
2021/12/21 08:33:03;;;;;;;21.38;12.50;;;0.00;78.50;;;-2.68;90.48;96628.97;4932053;28;20036;-68
2021/12/21 08:35:29;;;;;;;19.40;12.05;;;0.00;78.20;;;-2.66;90.99;96627.13;4917015;29;20036;-68
2021/12/21 08:38:03;;;;;;;26.17;12.93;;;0.00;78.10;;;-2.66;90.83;96636.59;4916984;29;20040;-69
2021/12/21 08:40:36;;;;;;;22.45;13.18;;;-3276.70;78.20;;;-2.67;90.20;96630.63;4913984;29;20040;-68
2021/12/21 08:43:04;;;;;;;22.67;13.73;;;-3276.70;78.10;;;-2.66;90.57;96629.69;4914070;28;20035;-68
2021/12/21 08:45:30;;;;;;;22.05;12.73;;;-3276.70;78.10;;;-2.66;90.51;96632.28;4931828;28;20148;-68
2021/12/21 08:47:58;;;;;;;20.15;13.50;;;-3276.60;78.10;;;-2.67;89.83;96633.19;4911363;29;20069;-67
2021/12/21 08:50:24;;;;;;;25.10;13.82;;;-3276.60;78.10;;;-2.66;90.21;96629.69;4931466;28;20154;-69
2021/12/21 08:52:50;;;;;;;25.08;13.27;;;-3276.70;78.50;;;-2.60;90.23;96639.63;4931746;28;20143;-66
2021/12/21 08:55:17;;;;;;;26.00;14.60;;;0.00;78.60;;;-2.59;90.02;96640.44;4933436;28;20035;-69
2021/12/21 08:57:43;;;;;;;26.98;14.02;;;0.00;78.30;;;-2.58;90.12;96642.91;4916541;28;20036;-68
2021/12/21 09:00:09;;;;;;;22.65;13.73;;;0.00;78.70;;;-2.57;90.04;96647.16;4930565;29;20571;-68
2021/12/21 09:02:37;;;;;;;22.20;13.75;;;0.00;78.70;;;-2.57;90.49;96636.84;4930078;28;20043;-68
2021/12/21 09:05:10;;;;;;;22.42;13.95;;;0.00;78.50;;;-2.57;90.32;96642.00;4930266;28;20035;-69
2021/12/21 09:07:36;;;;;;;20.77;13.95;;;0.00;78.60;;;-2.58;90.23;96640.34;4914492;29;20506;-69
2021/12/21 09:10:02;;;;;;;25.60;14.63;;;0.00;78.40;;;-2.54;90.39;96641.78;4913080;29;20123;-70
2021/12/21 09:12:27;;;;;;;22.45;14.10;;;0.00;78.00;;;-2.53;90.32;96640.88;4913097;29;20587;-70
2021/12/21 09:14:53;;;;;;;24.17;15.40;;;0.00;77.60;;;-2.49;90.38;96639.78;4921041;28;20071;-66
2021/12/21 09:17:19;;;;;;;24.40;15.32;;;0.20;77.50;;;-2.39;90.10;96639.19;4929536;28;20059;-67
2021/12/21 09:19:44;;;;;;;28.23;16.95;;;0.20;77.80;;;-2.35;90.56;96646.63;4913346;29;20440;-67
2021/12/21 09:22:10;;;;;;;28.65;17.48;;;0.30;77.80;;;-2.29;90.44;96645.41;4913078;29;20561;-67
2021/12/21 09:24:36;;;;;;;27.77;15.82;;;0.30;77.90;;;-2.24;90.45;96648.56;4917599;28;20085;-67
2021/12/21 09:27:02;;;;;;;26.98;16.20;;;0.30;77.80;;;-2.24;89.81;96643.41;4929075;29;20032;-67
2021/12/21 09:29:27;;;;;;;29.10;16.30;;;0.30;77.70;;;-2.25;90.00;96646.91;4928677;29;20527;-67
2021/12/21 09:31:53;;;;;;;27.20;16.52;;;0.20;77.60;;;-2.26;90.05;96642.66;4928784;28;20071;-67
2021/12/21 09:34:19;;;;;;;29.00;16.50;;;0.30;77.40;;;-2.21;90.00;96638.03;4928776;29;20559;-67
2021/12/21 09:36:45;;;;;;;27.90;17.17;;;0.40;77.20;;;-2.19;89.90;96644.75;4928806;28;20035;-67
2021/12/21 09:39:10;;;;;;;30.48;17.58;;;0.40;77.60;;;-2.15;90.08;96642.78;4913483;29;20550;-67
2021/12/21 09:41:36;;;;;;;27.58;17.05;;;0.30;77.60;;;-2.12;90.06;96640.03;4926344;29;20632;-68
2021/12/21 09:44:04;;;;;;;28.63;17.27;;;0.50;77.10;;;-2.06;90.29;96647.34;4915578;29;20035;-67
2021/12/21 09:46:29;;;;;;;28.48;17.38;;;0.60;77.20;;;-2.01;89.91;96636.78;4912135;29;20043;-67
2021/12/21 09:48:55;;;;;;;31.83;17.20;;;0.60;77.30;;;-1.95;89.84;96634.63;4943546;28;20570;-68
2021/12/21 09:51:21;;;;;;;30.38;18.58;;;0.80;77.10;;;-1.87;90.01;96637.50;4916055;29;20057;-68
2021/12/21 09:53:47;;;;;;;29.80;17.88;;;0.90;76.90;;;-1.86;89.90;96636.59;4929757;29;20127;-69
2021/12/21 09:56:12;;;;;;;30.73;18.10;;;0.90;76.60;;;-1.79;89.67;96643.94;4896416;29;20165;-69
2021/12/21 09:58:38;;;;;;;30.15;18.33;;;0.80;76.70;;;-1.78;89.36;96637.88;4929005;28;20035;-68
2021/12/21 10:01:04;;;;;;;28.98;18.13;;;0.80;76.60;;;-1.79;89.67;96629.31;4931603;28;20392;-68
2021/12/21 10:03:30;;;;;;;31.67;19.67;;;0.80;77.00;;;-1.71;89.28;96628.78;4912680;29;20046;-69
2021/12/21 10:06:09;;;;;;;30.08;18.42;;;0.90;76.80;;;-1.67;89.06;96632.81;4915678;29;20040;-69
2021/12/21 10:08:35;;;;;;;30.60;19.23;;;0.90;75.90;;;-1.66;89.58;96621.56;4912600;28;20040;-70
2021/12/21 10:11:02;;;;;;;28.83;18.77;;;1.10;76.20;;;-1.65;89.31;96618.06;4914430;29;20042;-68
2021/12/21 10:13:28;;;;;;;29.85;19.15;;;0.90;76.50;;;-1.61;89.51;96611.78;4930308;29;20035;-67
2021/12/21 10:16:05;;;;;;;28.13;19.02;;;1.00;77.20;;;-1.57;89.67;96613.25;4929191;28;20055;-68
2021/12/21 10:18:38;;;;;;;29.88;18.38;;;0.90;77.00;;;-1.57;89.38;96623.56;4930418;29;20530;-68
2021/12/21 10:21:06;;;;;;;29.63;19.10;;;0.90;76.90;;;-1.54;89.54;96618.19;4930812;28;20047;-70
2021/12/21 10:23:38;;;;;;;32.88;19.30;;;1.00;76.80;;;-1.45;89.42;96615.00;4928762;29;20040;-68
2021/12/21 10:26:10;;;;;;;29.50;19.20;;;1.10;76.50;;;-1.43;89.11;96613.13;4909281;29;20142;-68
2021/12/21 10:28:47;;;;;;;43.75;27.90;;;1.20;76.40;;;-1.37;89.34;96612.72;4906158;29;20035;-69
2021/12/21 10:31:27;;;;;;;30.85;19.33;;;1.20;76.20;;;-1.37;88.67;96601.56;4936910;28;20031;-68
2021/12/21 10:33:58;;;;;;;24.98;17.52;;;1.20;75.90;;;-1.34;88.52;96604.78;4912370;29;20084;-68
2021/12/21 10:36:26;;;;;;;26.83;18.75;;;1.20;75.70;;;-1.28;88.58;96608.69;4913203;29;20580;-68
2021/12/21 10:38:55;;;;;;;41.10;18.83;;;1.30;75.90;;;-1.28;88.70;96604.38;4930366;28;20040;-68
2021/12/21 10:41:41;;;;;;;29.23;18.58;;;1.20;75.50;;;-1.24;88.21;96600.66;4915173;29;20091;-68
2021/12/21 10:44:11;;;;;;;25.83;16.77;;;1.40;75.50;;;-1.21;88.53;96606.53;4917768;29;20048;-68
2021/12/21 10:46:40;;;;;;;25.83;16.58;;;1.40;75.10;;;-1.17;87.83;96605.38;4930106;28;20032;-69
2021/12/21 10:49:15;;;;;;;28.05;16.83;;;1.50;74.60;;;-1.14;87.33;96605.16;4930419;28;20048;-70
2021/12/21 10:52:08;;;;;;;26.83;16.88;;;1.50;74.00;;;-1.12;86.61;96603.34;4930224;29;20043;-68